Time;durP1;ratioP1;P1;durP2;ratioP2;P2;SDS_P1;SDS_P2;PMS_P1;PMS_P2;Temp;Humidity;BMP_temperature;BMP_pressure;BME280_temperature;BME280_humidity;BME280_pressure;Samples;Min_cycle;Max_cycle;Signal;HPM_P1;HPM_P2
2022/03/05 05:02:38;;;;;;;5.40;4.13;;;-1.00;99.90;;;;;;4935491;23;20234;-68
2022/03/05 05:05:06;;;;;;;5.88;3.25;;;-1.00;99.90;;;;;;4917845;29;20285;-69
2022/03/05 05:07:33;;;;;;;8.13;2.72;;;-1.10;99.90;;;;;;4914798;29;20566;-69
2022/03/05 05:09:59;;;;;;;3.80;3.60;;;-1.00;99.90;;;;;;4917640;29;20312;-69
2022/03/05 05:12:26;;;;;;;3.13;2.80;;;-1.10;99.90;;;;;;4925234;29;20270;-69
2022/03/05 05:14:53;;;;;;;3.78;3.50;;;-1.10;99.90;;;;;;4909865;29;20266;-68
2022/03/05 05:17:19;;;;;;;3.47;3.28;;;-1.10;99.90;;;;;;4916191;29;20198;-69
2022/03/05 05:19:47;;;;;;;2.97;2.78;;;-1.10;99.90;;;;;;4914115;29;20653;-70
2022/03/05 05:22:14;;;;;;;3.30;3.00;;;-1.10;99.90;;;;;;4928867;29;20310;-69
2022/03/05 05:24:41;;;;;;;6.60;3.78;;;-1.10;99.90;;;;;;4930061;29;20723;-67
2022/03/05 05:27:08;;;;;;;5.82;2.92;;;-1.10;99.90;;;;;;4930079;29;20202;-69
2022/03/05 05:29:34;;;;;;;5.07;3.45;;;-1.10;99.90;;;;;;4912886;29;20210;-68
2022/03/05 05:32:01;;;;;;;3.90;3.45;;;-1.20;99.90;;;;;;4921240;29;20226;-69
2022/03/05 05:34:28;;;;;;;3.60;3.30;;;-1.20;99.90;;;;;;4913905;29;20210;-68
2022/03/05 05:36:56;;;;;;;3.85;3.40;;;-1.20;99.90;;;;;;4927371;29;20222;-69
2022/03/05 05:39:22;;;;;;;3.80;3.10;;;-1.20;99.90;;;;;;4912821;29;20961;-69
2022/03/05 05:41:49;;;;;;;8.68;3.47;;;-1.20;99.90;;;;;;4924608;29;20871;-69
2022/03/05 05:44:16;;;;;;;3.60;3.40;;;-1.20;99.90;;;;;;4914576;29;20214;-69
2022/03/05 05:46:43;;;;;;;3.78;3.47;;;-1.20;99.90;;;;;;4924676;29;20214;-69
2022/03/05 05:49:09;;;;;;;3.22;2.92;;;-1.30;99.90;;;;;;4918041;29;20203;-69
2022/03/05 05:51:36;;;;;;;6.32;3.70;;;-1.30;99.90;;;;;;4915374;29;20274;-68
2022/03/05 05:54:05;;;;;;;5.45;3.53;;;-1.30;99.90;;;;;;4914703;29;20273;-69
2022/03/05 05:56:31;;;;;;;3.35;3.03;;;-1.30;99.90;;;;;;4917148;29;20354;-69
2022/03/05 05:58:58;;;;;;;4.22;3.53;;;-1.30;99.90;;;;;;4905447;29;20267;-69
2022/03/05 06:01:25;;;;;;;5.90;3.80;;;-1.30;99.90;;;;;;4915527;29;20242;-69
2022/03/05 06:03:52;;;;;;;4.97;3.50;;;-1.30;99.90;;;;;;4903774;29;20213;-68
2022/03/05 06:06:19;;;;;;;4.68;4.28;;;-1.30;99.90;;;;;;4914123;29;20238;-68
2022/03/05 06:08:45;;;;;;;6.63;6.00;;;-1.30;99.90;;;;;;4907790;29;20283;-69
2022/03/05 06:11:14;;;;;;;4.07;3.78;;;-1.30;99.90;;;;;;4931310;29;20230;-69
2022/03/05 06:13:40;;;;;;;4.10;3.90;;;-1.30;99.90;;;;;;4924489;29;20648;-69
2022/03/05 06:16:07;;;;;;;5.10;3.25;;;-1.30;99.90;;;;;;4931213;29;20252;-68
2022/03/05 06:18:34;;;;;;;4.15;2.88;;;-1.30;99.90;;;;;;4925650;29;20289;-69
2022/03/05 06:21:01;;;;;;;4.68;4.15;;;-1.30;99.90;;;;;;4915141;29;20333;-69
2022/03/05 06:23:30;;;;;;;6.38;4.18;;;-1.30;99.90;;;;;;4909111;29;20223;-69
2022/03/05 06:25:57;;;;;;;4.07;3.78;;;-1.30;99.90;;;;;;4910927;29;20211;-69
2022/03/05 06:28:25;;;;;;;3.42;3.10;;;-1.30;99.90;;;;;;4909767;29;20328;-69
2022/03/05 06:30:52;;;;;;;4.07;3.88;;;-1.30;99.90;;;;;;4914579;29;20723;-69
2022/03/05 06:33:19;;;;;;;5.07;3.40;;;-1.30;99.90;;;;;;4910729;29;20218;-70
2022/03/05 06:35:45;;;;;;;3.67;3.42;;;-1.20;99.90;;;;;;4907873;29;20598;-69
2022/03/05 06:38:12;;;;;;;4.88;3.33;;;-1.20;99.90;;;;;;4912641;29;20203;-70
2022/03/05 06:40:39;;;;;;;5.78;3.70;;;-1.20;99.90;;;;;;4909965;29;20233;-69
2022/03/05 06:43:06;;;;;;;4.03;3.78;;;-1.20;99.90;;;;;;4913576;29;20556;-68
2022/03/05 06:45:34;;;;;;;4.38;3.83;;;-1.10;99.90;;;;;;4912118;29;20206;-69
2022/03/05 06:48:00;;;;;;;4.43;4.00;;;-1.10;99.90;;;;;;4930341;29;20202;-69
2022/03/05 06:50:27;;;;;;;5.03;3.80;;;-1.10;99.90;;;;;;4914165;29;20206;-68
2022/03/05 06:52:54;;;;;;;5.93;3.85;;;-1.10;99.90;;;;;;4906799;29;20216;-69
2022/03/05 06:55:21;;;;;;;3.90;3.67;;;-1.00;99.90;;;;;;4915502;29;20258;-69
2022/03/05 06:57:48;;;;;;;4.95;4.50;;;-1.00;99.90;;;;;;4908813;29;20198;-69
2022/03/05 07:00:15;;;;;;;4.93;4.53;;;-1.00;99.90;;;;;;4919506;29;20570;-69
2022/03/05 07:02:43;;;;;;;4.35;3.92;;;-1.00;99.90;;;;;;4909988;29;20212;-69
2022/03/05 07:05:11;;;;;;;3.80;3.60;;;-0.90;99.90;;;;;;4896285;29;20313;-68
2022/03/05 07:07:37;;;;;;;4.03;3.78;;;-0.90;99.90;;;;;;4922499;29;20213;-69
2022/03/05 07:10:06;;;;;;;4.03;3.72;;;-0.80;99.90;;;;;;4909094;29;20231;-68
2022/03/05 07:12:33;;;;;;;4.60;4.10;;;-0.80;99.90;;;;;;4905808;29;20227;-69
2022/03/05 07:15:01;;;;;;;5.70;4.68;;;-0.70;99.90;;;;;;4910370;29;20214;-70
2022/03/05 07:17:28;;;;;;;4.22;4.00;;;-0.70;99.90;;;;;;4906852;29;20260;-69
2022/03/05 07:19:56;;;;;;;3.65;3.33;;;-0.60;99.90;;;;;;4906093;29;20282;-68
2022/03/05 07:22:23;;;;;;;5.57;4.10;;;-0.50;99.90;;;;;;4903053;29;20683;-68
2022/03/05 07:24:49;;;;;;;7.47;4.47;;;-0.50;99.90;;;;;;4910342;29;20208;-69
2022/03/05 07:27:16;;;;;;;6.70;4.20;;;-0.40;99.90;;;;;;4915596;29;20206;-68
2022/03/05 07:29:44;;;;;;;5.72;4.85;;;-0.40;99.90;;;;;;4921868;29;20226;-68
2022/03/05 07:32:11;;;;;;;4.38;4.05;;;-0.30;99.90;;;;;;4905189;29;20794;-69
2022/03/05 07:34:38;;;;;;;3.65;3.38;;;-0.30;99.90;;;;;;4911356;29;20270;-69
2022/03/05 07:37:06;;;;;;;4.88;4.50;;;-0.20;99.90;;;;;;4903866;29;20621;-68
2022/03/05 07:39:33;;;;;;;5.15;4.75;;;-0.20;99.90;;;;;;4911089;29;20215;-67
2022/03/05 07:41:59;;;;;;;10.30;3.63;;;-0.10;99.90;;;;;;4913189;29;20235;-70
2022/03/05 07:44:26;;;;;;;9.07;4.30;;;0.00;99.90;;;;;;4911334;29;20218;-68
2022/03/05 07:46:53;;;;;;;7.80;4.47;;;0.10;99.90;;;;;;4914081;29;20555;-68
2022/03/05 07:49:20;;;;;;;4.47;4.18;;;0.10;99.90;;;;;;4913234;29;20221;-68
2022/03/05 07:51:46;;;;;;;8.60;4.53;;;0.10;99.90;;;;;;4913118;29;20257;-69
2022/03/05 07:54:14;;;;;;;4.65;4.25;;;0.20;99.90;;;;;;4913794;29;20210;-68
2022/03/05 07:56:41;;;;;;;4.55;4.32;;;0.30;99.90;;;;;;4913690;29;20791;-69
2022/03/05 07:59:08;;;;;;;5.90;4.35;;;0.30;99.90;;;;;;4910639;29;20214;-69
2022/03/05 08:01:34;;;;;;;7.32;4.22;;;0.40;99.90;;;;;;4907895;29;20681;-68
2022/03/05 08:04:01;;;;;;;5.03;4.53;;;0.40;99.90;;;;;;4909604;29;20581;-68
2022/03/05 08:06:28;;;;;;;4.53;4.18;;;0.50;99.90;;;;;;4909749;29;20916;-68
2022/03/05 08:08:57;;;;;;;6.00;3.95;;;0.60;99.90;;;;;;4906381;29;20573;-68
2022/03/05 08:11:25;;;;;;;5.38;4.93;;;0.70;99.90;;;;;;4911814;29;20277;-68
2022/03/05 08:13:52;;;;;;;5.43;4.93;;;0.80;99.90;;;;;;4912091;29;21007;-70
2022/03/05 08:16:19;;;;;;;6.43;4.20;;;1.00;99.90;;;;;;4931017;29;20220;-72
2022/03/05 08:18:46;;;;;;;4.63;4.22;;;1.00;99.90;;;;;;4918722;29;20208;-69
2022/03/05 08:21:13;;;;;;;4.95;4.15;;;1.00;99.90;;;;;;4912929;29;20242;-69
2022/03/05 08:23:39;;;;;;;4.43;4.07;;;1.10;99.90;;;;;;4907536;29;20230;-70
2022/03/05 08:26:10;;;;;;;5.30;4.88;;;1.20;99.90;;;;;;4909342;29;20207;-70
2022/03/05 08:28:38;;;;;;;4.90;4.30;;;1.30;99.90;;;;;;4909516;29;20210;-70
2022/03/05 08:31:05;;;;;;;4.57;4.18;;;1.40;99.90;;;;;;4912062;29;20230;-70
2022/03/05 08:33:32;;;;;;;8.18;4.97;;;1.50;99.90;;;;;;4910784;29;20199;-70
2022/03/05 08:35:58;;;;;;;4.47;4.18;;;1.60;99.90;;;;;;4913648;29;20203;-70
2022/03/05 08:38:25;;;;;;;6.07;4.28;;;1.70;99.90;;;;;;4914235;29;20214;-70
2022/03/05 08:40:52;;;;;;;4.72;4.07;;;1.70;99.90;;;;;;4913817;29;20307;-71
2022/03/05 08:43:19;;;;;;;5.63;4.55;;;1.90;99.90;;;;;;4914414;29;20210;-70
2022/03/05 08:45:47;;;;;;;5.30;4.75;;;1.90;99.90;;;;;;4913913;29;20638;-69
2022/03/05 08:48:14;;;;;;;4.55;4.15;;;2.00;99.90;;;;;;4913824;29;20239;-70
2022/03/05 08:50:40;;;;;;;4.90;4.50;;;2.10;99.90;;;;;;4923991;29;20230;-69
2022/03/05 08:53:08;;;;;;;5.43;4.93;;;2.20;99.90;;;;;;4916996;29;20210;-70
2022/03/05 08:55:35;;;;;;;9.63;5.45;;;2.30;99.90;;;;;;4926188;29;20331;-69
2022/03/05 08:58:02;;;;;;;4.90;3.00;;;2.40;99.90;;;;;;4902030;29;20746;-69
2022/03/05 09:00:28;;;;;;;6.13;5.00;;;2.50;99.90;;;;;;4914334;29;20222;-70
2022/03/05 09:02:56;;;;;;;3.05;2.70;;;2.60;99.90;;;;;;4921005;29;20218;-69
2022/03/05 09:05:23;;;;;;;5.47;3.60;;;2.70;99.90;;;;;;4906738;29;20210;-70
2022/03/05 09:07:50;;;;;;;4.18;3.70;;;2.70;99.90;;;;;;4916026;29;20302;-67
2022/03/05 09:10:17;;;;;;;7.15;3.85;;;2.80;99.90;;;;;;4910160;29;20628;-69
2022/03/05 09:12:43;;;;;;;5.65;5.15;;;2.90;99.90;;;;;;4922125;29;20210;-70
2022/03/05 09:15:11;;;;;;;3.85;3.47;;;2.90;99.90;;;;;;4924711;29;20237;-69
2022/03/05 09:17:38;;;;;;;5.88;5.35;;;3.00;99.90;;;;;;4909440;29;20300;-69
2022/03/05 09:20:07;;;;;;;6.07;4.10;;;3.10;99.90;;;;;;4892814;29;20242;-70
2022/03/05 09:22:34;;;;;;;5.15;4.65;;;3.10;99.90;;;;;;4926032;29;20230;-70
2022/03/05 09:25:01;;;;;;;7.13;4.82;;;3.20;99.90;;;;;;4915045;29;20234;-69
2022/03/05 09:27:28;;;;;;;5.10;4.45;;;3.30;99.90;;;;;;4914293;29;20207;-68
2022/03/05 09:29:54;;;;;;;5.07;4.60;;;3.40;99.90;;;;;;4917138;29;20948;-68
2022/03/05 09:32:21;;;;;;;4.38;4.07;;;3.50;99.90;;;;;;4920045;29;20711;-68
2022/03/05 09:34:48;;;;;;;2.15;2.05;;;3.60;99.90;;;;;;4912520;29;20214;-69
2022/03/05 09:37:16;;;;;;;6.70;4.60;;;3.60;99.90;;;;;;4917879;29;20223;-68
2022/03/05 09:39:42;;;;;;;4.35;4.00;;;3.60;99.90;;;;;;4910861;29;20203;-68
2022/03/05 09:42:09;;;;;;;5.25;3.85;;;3.70;99.90;;;;;;4917286;29;20227;-69
2022/03/05 09:44:38;;;;;;;7.60;4.47;;;3.70;99.90;;;;;;4901307;29;20275;-68
2022/03/05 09:47:07;;;;;;;9.43;4.63;;;3.80;99.90;;;;;;4921119;29;20209;-69
2022/03/05 09:49:37;;;;;;;5.22;4.60;;;3.80;99.90;;;;;;4933909;29;20218;-68
2022/03/05 09:52:04;;;;;;;7.47;4.32;;;3.90;99.90;;;;;;4917741;29;20318;-69
2022/03/05 09:54:32;;;;;;;2.17;2.08;;;3.90;99.90;;;;;;4915450;29;20285;-69
2022/03/05 09:56:59;;;;;;;5.55;4.32;;;4.00;99.90;;;;;;4926138;29;20218;-68
2022/03/05 09:59:26;;;;;;;6.05;4.97;;;4.00;99.90;;;;;;4918214;29;20237;-68
2022/03/05 10:01:54;;;;;;;6.05;4.03;;;4.00;99.90;;;;;;4919929;29;20237;-69
2022/03/05 10:04:22;;;;;;;5.20;4.50;;;4.10;99.90;;;;;;4920237;29;20692;-70
2022/03/05 10:07:08;;;;;;;4.30;3.90;;;4.20;99.90;;;;;;4902727;29;20203;-69
2022/03/05 10:09:36;;;;;;;6.90;5.40;;;4.40;99.90;;;;;;4909065;29;20720;-68
2022/03/05 10:12:24;;;;;;;5.00;4.50;;;4.40;99.90;;;;;;4900447;29;20734;-69
2022/03/05 10:15:08;;;;;;;9.45;3.40;;;4.40;99.90;;;;;;4911092;29;20588;-68
2022/03/05 10:17:55;;;;;;;5.07;4.35;;;4.30;99.90;;;;;;4917686;29;20206;-68
2022/03/05 10:20:24;;;;;;;7.32;5.05;;;4.40;99.90;;;;;;4897175;29;20230;-68
2022/03/05 10:22:59;;;;;;;5.38;4.82;;;4.40;99.90;;;;;;4921430;29;20217;-69
2022/03/05 10:25:33;;;;;;;7.18;4.20;;;4.40;99.90;;;;;;4916620;29;20210;-69
2022/03/05 10:28:09;;;;;;;10.07;5.45;;;4.50;99.90;;;;;;4919488;29;20206;-68
2022/03/05 10:30:37;;;;;;;5.90;4.72;;;4.60;99.90;;;;;;4915792;29;20604;-69
2022/03/05 10:33:05;;;;;;;4.50;3.70;;;4.70;99.90;;;;;;4915002;29;20258;-69
2022/03/05 10:35:31;;;;;;;6.35;5.22;;;4.70;99.90;;;;;;4919195;29;20261;-69
2022/03/05 10:37:58;;;;;;;6.53;4.50;;;4.80;99.90;;;;;;4929559;29;20206;-70
2022/03/05 10:40:31;;;;;;;12.55;5.82;;;4.90;99.90;;;;;;4919365;29;20286;-70
2022/03/05 10:43:03;;;;;;;6.05;4.50;;;5.00;99.90;;;;;;4920506;29;20218;-70
2022/03/05 10:45:30;;;;;;;4.97;4.25;;;5.10;99.90;;;;;;4900453;29;20211;-70
2022/03/05 10:47:59;;;;;;;9.52;4.30;;;5.40;99.90;;;;;;4925440;29;20214;-70
2022/03/05 10:50:28;;;;;;;7.80;4.28;;;5.50;99.90;;;;;;4929549;29;20634;-70
2022/03/05 10:52:57;;;;;;;6.35;4.50;;;5.70;99.90;;;;;;4912828;29;20253;-70
2022/03/05 10:55:25;;;;;;;4.43;3.88;;;5.70;99.90;;;;;;4914418;29;20223;-71
2022/03/05 10:58:13;;;;;;;7.85;4.53;;;5.70;99.90;;;;;;4896328;29;20211;-70
2022/03/05 11:00:40;;;;;;;3.55;3.30;;;5.70;99.90;;;;;;4927384;29;20269;-69
2022/03/05 11:03:07;;;;;;;5.70;5.10;;;5.70;99.90;;;;;;4916018;29;20202;-70
2022/03/05 11:05:36;;;;;;;7.25;4.30;;;5.80;99.90;;;;;;4916230;29;20285;-69
2022/03/05 11:08:04;;;;;;;4.80;4.10;;;5.80;99.90;;;;;;4913493;29;20212;-71
2022/03/05 11:10:31;;;;;;;4.50;4.20;;;5.80;99.90;;;;;;4932693;29;20214;-69
2022/03/05 11:13:02;;;;;;;4.47;3.90;;;5.80;99.90;;;;;;4905027;29;20289;-70
2022/03/05 11:15:31;;;;;;;4.25;3.88;;;5.80;99.90;;;;;;4911178;29;20229;-70
2022/03/05 11:17:59;;;;;;;7.05;3.78;;;5.90;99.90;;;;;;4899574;29;20262;-71
2022/03/05 11:20:26;;;;;;;5.10;4.60;;;5.90;99.90;;;;;;4914724;29;20297;-71
2022/03/05 11:22:53;;;;;;;4.85;4.40;;;5.90;99.90;;;;;;4916090;29;20211;-71
2022/03/05 11:25:22;;;;;;;7.43;4.72;;;5.80;99.90;;;;;;4902030;29;20278;-71
2022/03/05 11:27:55;;;;;;;6.20;4.68;;;5.80;99.90;;;;;;4901447;29;20214;-70
2022/03/05 11:30:22;;;;;;;5.63;4.00;;;5.90;99.90;;;;;;4915028;29;20263;-69
2022/03/05 11:32:50;;;;;;;9.43;5.60;;;6.10;99.90;;;;;;4908497;29;20266;-70
2022/03/05 11:35:22;;;;;;;5.47;4.57;;;6.10;99.90;;;;;;4908623;29;20222;-70
2022/03/05 11:37:50;;;;;;;4.28;3.70;;;6.20;99.90;;;;;;4911962;29;20735;-71
2022/03/05 11:40:42;;;;;;;7.22;5.03;;;6.20;99.90;;;;;;4908721;29;20287;-70
2022/03/05 11:43:20;;;;;;;5.72;5.13;;;6.20;99.90;;;;;;4894660;29;20207;-70
2022/03/05 11:45:51;;;;;;;4.53;3.75;;;6.30;99.90;;;;;;4912528;29;20210;-71
2022/03/05 11:48:32;;;;;;;4.28;3.92;;;6.30;99.90;;;;;;4913826;29;20232;-70
2022/03/05 11:51:01;;;;;;;5.10;3.85;;;6.40;99.90;;;;;;4913377;29;20321;-70
2022/03/05 11:53:28;;;;;;;5.97;4.63;;;6.40;99.90;;;;;;4914191;29;20293;-70
2022/03/05 11:55:56;;;;;;;7.45;4.90;;;6.40;99.90;;;;;;4914039;29;20766;-71
2022/03/05 11:58:40;;;;;;;4.53;4.10;;;6.40;99.90;;;;;;4911477;29;20211;-70
2022/03/05 12:01:36;;;;;;;6.07;4.65;;;6.40;99.90;;;;;;4917291;29;20715;-71
2022/03/05 12:04:28;;;;;;;5.43;4.95;;;6.70;99.90;;;;;;4914236;29;20203;-68
2022/03/05 12:07:00;;;;;;;5.45;4.93;;;6.60;99.90;;;;;;4917682;29;20305;-70
2022/03/05 12:09:54;;;;;;;4.70;4.03;;;6.60;99.90;;;;;;4907893;29;20214;-70
2022/03/05 12:12:21;;;;;;;7.55;4.65;;;6.60;99.90;;;;;;4909672;29;20313;-70
2022/03/05 12:15:13;;;;;;;6.65;5.30;;;6.60;99.90;;;;;;4910471;29;20202;-69
2022/03/05 12:17:50;;;;;;;3.88;3.53;;;6.70;99.90;;;;;;4912863;29;20262;-69
2022/03/05 12:20:21;;;;;;;5.38;4.75;;;6.70;99.90;;;;;;4912502;29;20225;-69
2022/03/05 12:23:06;;;;;;;4.15;3.83;;;6.70;99.90;;;;;;4912866;29;20262;-70
2022/03/05 12:25:35;;;;;;;6.93;4.68;;;6.90;99.90;;;;;;4894314;29;20218;-69
2022/03/05 12:28:04;;;;;;;5.82;4.88;;;6.90;99.90;;;;;;4894310;29;20626;-71
2022/03/05 12:30:33;;;;;;;5.32;4.68;;;6.70;99.90;;;;;;4893212;29;20215;-70
2022/03/05 12:33:01;;;;;;;5.88;5.25;;;6.60;99.90;;;;;;4893841;29;20239;-70
2022/03/05 12:35:36;;;;;;;8.30;5.40;;;6.60;99.90;;;;;;4913317;29;20212;-69
2022/03/05 12:38:20;;;;;;;6.50;5.47;;;6.50;99.90;;;;;;4913115;29;20213;-70
2022/03/05 12:40:48;;;;;;;6.03;5.43;;;6.40;99.90;;;;;;4912751;29;20230;-69
2022/03/05 12:43:21;;;;;;;7.75;5.28;;;6.30;99.90;;;;;;4912984;29;20206;-70
2022/03/05 12:45:51;;;;;;;7.20;5.13;;;6.30;99.90;;;;;;4913023;29;20210;-69
2022/03/05 12:48:23;;;;;;;5.28;4.05;;;6.20;99.90;;;;;;4912691;29;20210;-70
2022/03/05 12:50:56;;;;;;;4.63;4.15;;;6.20;99.90;;;;;;4912420;29;20628;-69
2022/03/05 12:53:26;;;;;;;5.63;4.85;;;6.20;99.90;;;;;;4912681;29;20293;-71
2022/03/05 12:56:05;;;;;;;7.35;5.43;;;6.30;99.90;;;;;;4915902;29;20206;-70
2022/03/05 12:58:42;;;;;;;4.32;3.92;;;6.40;99.90;;;;;;4916561;29;20553;-71
2022/03/05 13:01:13;;;;;;;3.88;3.25;;;6.60;99.90;;;;;;4914043;29;20258;-70
2022/03/05 13:03:46;;;;;;;5.45;3.28;;;6.70;99.90;;;;;;4908340;29;20631;-70
2022/03/05 13:06:14;;;;;;;7.35;5.53;;;6.70;99.90;;;;;;4916553;29;20206;-69
2022/03/05 13:08:45;;;;;;;6.32;5.47;;;6.80;99.90;;;;;;4916425;29;20218;-70
2022/03/05 13:11:13;;;;;;;7.00;5.85;;;6.80;99.90;;;;;;4916169;29;20230;-70
2022/03/05 13:13:45;;;;;;;7.05;4.53;;;6.90;99.90;;;;;;4915655;29;20215;-70
2022/03/05 13:16:19;;;;;;;4.65;4.25;;;6.80;99.90;;;;;;4916490;29;20591;-69
2022/03/05 13:19:05;;;;;;;8.10;5.30;;;6.90;99.90;;;;;;4915972;29;20206;-70
2022/03/05 13:21:42;;;;;;;7.70;4.72;;;7.00;99.90;;;;;;4915878;29;20231;-71
2022/03/05 13:24:12;;;;;;;4.32;3.95;;;7.20;99.90;;;;;;4916350;29;20207;-69
2022/03/05 13:26:45;;;;;;;4.82;4.43;;;7.30;99.90;;;;;;4916266;29;20297;-69
2022/03/05 13:29:16;;;;;;;7.40;5.07;;;7.40;99.90;;;;;;4915803;29;20219;-69
2022/03/05 13:31:46;;;;;;;4.97;4.57;;;7.50;99.90;;;;;;4915696;29;20226;-71
2022/03/05 13:34:23;;;;;;;5.30;4.65;;;7.60;99.90;;;;;;4915886;29;20282;-70
2022/03/05 13:36:56;;;;;;;4.93;4.53;;;7.60;99.90;;;;;;4916347;29;20210;-70
2022/03/05 13:39:35;;;;;;;5.07;4.65;;;7.80;99.90;;;;;;4916101;29;20601;-69
2022/03/05 13:42:15;;;;;;;5.38;4.97;;;7.70;99.90;;;;;;4910038;29;20236;-69
2022/03/05 13:45:00;;;;;;;5.00;4.65;;;7.80;99.90;;;;;;4915321;29;20217;-69
2022/03/05 13:47:34;;;;;;;4.55;4.15;;;7.90;99.90;;;;;;4915828;29;20235;-69
2022/03/05 13:50:10;;;;;;;6.20;5.60;;;8.00;99.90;;;;;;4915346;29;20270;-69
2022/03/05 13:53:04;;;;;;;6.90;5.65;;;8.00;99.90;;;;;;4915682;29;20234;-71
2022/03/05 13:55:39;;;;;;;5.88;5.22;;;7.90;99.90;;;;;;4897115;29;20236;-69
2022/03/05 13:58:21;;;;;;;4.68;4.47;;;7.90;99.90;;;;;;4898225;29;20237;-70
2022/03/05 14:00:52;;;;;;;5.03;4.63;;;7.90;99.90;;;;;;4901911;29;20234;-70
2022/03/05 14:03:22;;;;;;;4.60;4.20;;;7.90;99.90;;;;;;4926053;29;20242;-70
2022/03/05 14:06:10;;;;;;;5.35;4.68;;;7.80;99.70;;;;;;4917249;29;20664;-70
2022/03/05 14:08:55;;;;;;;6.72;6.13;;;7.80;99.90;;;;;;4911774;29;20207;-70
2022/03/05 14:11:33;;;;;;;5.15;4.75;;;7.80;99.90;;;;;;4919513;29;20280;-70
2022/03/05 14:14:04;;;;;;;6.65;5.57;;;7.80;99.90;;;;;;4918689;29;20534;-68
2022/03/05 14:16:49;;;;;;;6.20;5.32;;;7.80;99.90;;;;;;4915781;29;20285;-69
2022/03/05 14:19:31;;;;;;;5.97;5.47;;;7.70;99.90;;;;;;4914280;29;20334;-69
2022/03/05 14:22:06;;;;;;;6.05;5.45;;;7.60;99.90;;;;;;4925794;29;20233;-69
2022/03/05 14:25:03;;;;;;;6.43;5.85;;;7.60;99.90;;;;;;4910297;29;20300;-69
2022/03/05 14:27:35;;;;;;;5.88;5.45;;;7.60;99.90;;;;;;4913481;29;20287;-69
2022/03/05 14:30:05;;;;;;;5.40;4.85;;;7.50;99.90;;;;;;4916112;29;20205;-69
2022/03/05 14:32:35;;;;;;;7.65;6.45;;;7.40;99.90;;;;;;4914874;29;20329;-69
2022/03/05 14:35:16;;;;;;;6.75;6.00;;;7.40;99.90;;;;;;4916564;29;20213;-70
2022/03/05 14:37:48;;;;;;;5.60;5.18;;;7.40;99.90;;;;;;4926249;29;20211;-70
2022/03/05 14:40:19;;;;;;;5.57;5.07;;;7.30;99.90;;;;;;4912827;29;20208;-69
2022/03/05 14:43:00;;;;;;;5.78;5.20;;;7.30;99.90;;;;;;4908980;29;20222;-70
2022/03/05 14:45:29;;;;;;;5.47;4.97;;;7.30;99.90;;;;;;4923313;29;20228;-70
2022/03/05 14:47:57;;;;;;;5.93;5.00;;;7.30;99.90;;;;;;4928361;29;20198;-69
2022/03/05 14:50:29;;;;;;;3.92;3.60;;;7.40;99.90;;;;;;4916327;29;20207;-69
2022/03/05 14:53:09;;;;;;;7.13;5.68;;;7.40;99.90;;;;;;4918672;29;20678;-70
2022/03/05 14:55:40;;;;;;;5.13;4.80;;;7.40;99.90;;;;;;4923191;29;20207;-71
2022/03/05 14:58:14;;;;;;;5.00;4.60;;;7.30;99.90;;;;;;4898865;29;20211;-69
2022/03/05 15:00:43;;;;;;;4.00;3.70;;;7.10;99.90;;;;;;4898351;29;20337;-70
2022/03/05 15:03:12;;;;;;;8.25;3.28;;;6.90;99.90;;;;;;4916082;29;20711;-70
2022/03/05 15:05:41;;;;;;;6.60;5.90;;;6.80;99.90;;;;;;4914928;29;20254;-70
2022/03/05 15:08:08;;;;;;;5.90;5.38;;;6.70;99.90;;;;;;4914655;29;20217;-70
2022/03/05 15:10:39;;;;;;;5.55;5.15;;;6.60;99.90;;;;;;4913699;29;20206;-70
2022/03/05 15:13:07;;;;;;;6.10;4.90;;;6.60;99.90;;;;;;4911409;29;20203;-70
2022/03/05 15:15:39;;;;;;;6.55;4.57;;;6.50;99.90;;;;;;4913250;29;20210;-69
2022/03/05 15:18:17;;;;;;;4.80;4.50;;;6.50;99.90;;;;;;4914199;29;20218;-69
2022/03/05 15:20:47;;;;;;;6.85;6.10;;;6.40;99.90;;;;;;4914019;29;20238;-69
2022/03/05 15:23:14;;;;;;;4.93;4.63;;;6.40;99.90;;;;;;4914081;29;20239;-69
2022/03/05 15:25:45;;;;;;;4.60;4.00;;;6.40;99.90;;;;;;4914907;29;20206;-70
2022/03/05 15:28:15;;;;;;;4.80;4.40;;;6.40;99.90;;;;;;4914845;29;20297;-70
2022/03/05 15:30:45;;;;;;;5.60;5.10;;;6.40;99.90;;;;;;4914505;29;20577;-72
2022/03/05 15:33:15;;;;;;;6.25;5.65;;;6.30;99.90;;;;;;4914124;29;20308;-69
2022/03/05 15:35:48;;;;;;;5.20;4.75;;;6.40;99.90;;;;;;4914436;29;20222;-70
2022/03/05 15:38:24;;;;;;;5.10;4.78;;;6.40;99.90;;;;;;4914348;29;20666;-70
2022/03/05 15:40:53;;;;;;;5.55;5.15;;;6.40;99.90;;;;;;4913827;29;20230;-69
2022/03/05 15:43:27;;;;;;;6.00;5.22;;;6.50;99.90;;;;;;4914684;29;20261;-68
2022/03/05 15:45:57;;;;;;;4.68;4.38;;;6.50;99.90;;;;;;4914539;29;20302;-70
2022/03/05 15:48:24;;;;;;;5.38;4.97;;;6.50;99.90;;;;;;4913997;29;20218;-72
2022/03/05 15:50:53;;;;;;;4.95;3.85;;;6.60;99.90;;;;;;4914052;29;20230;-71
2022/03/05 15:53:22;;;;;;;5.85;5.45;;;6.50;99.90;;;;;;4912344;29;20207;-71
2022/03/05 15:55:50;;;;;;;4.40;4.10;;;6.40;99.90;;;;;;4913845;29;20229;-70
2022/03/05 15:58:22;;;;;;;6.85;5.55;;;6.40;99.90;;;;;;4914173;29;20215;-70
2022/03/05 16:00:50;;;;;;;5.88;5.47;;;6.40;99.90;;;;;;4913634;29;20253;-70
2022/03/05 16:03:22;;;;;;;6.95;5.35;;;6.30;99.90;;;;;;4912919;29;20230;-69
2022/03/05 16:05:51;;;;;;;6.32;5.53;;;6.30;99.90;;;;;;4915530;29;20293;-69
2022/03/05 16:08:19;;;;;;;5.20;4.70;;;6.30;99.90;;;;;;4916632;29;20213;-70
2022/03/05 16:10:49;;;;;;;6.07;5.53;;;6.30;99.90;;;;;;4913782;29;20222;-70
2022/03/05 16:13:16;;;;;;;5.70;5.30;;;6.20;99.90;;;;;;4918046;29;20194;-70
2022/03/05 16:15:48;;;;;;;5.53;5.05;;;6.20;99.90;;;;;;4916411;29;20217;-70
2022/03/05 16:18:16;;;;;;;4.30;4.03;;;6.20;99.90;;;;;;4912839;29;20226;-70
2022/03/05 16:20:44;;;;;;;5.45;4.90;;;6.10;99.90;;;;;;4910086;29;20231;-70
2022/03/05 16:23:14;;;;;;;6.70;3.90;;;6.10;99.90;;;;;;4913610;29;20230;-69
2022/03/05 16:25:44;;;;;;;6.65;5.13;;;6.10;99.90;;;;;;4913793;29;20210;-70
2022/03/05 16:28:11;;;;;;;4.80;4.13;;;6.00;99.90;;;;;;4913156;29;20202;-71
2022/03/05 16:30:39;;;;;;;4.07;3.78;;;5.90;99.90;;;;;;4924002;29;20202;-70
2022/03/05 16:33:10;;;;;;;4.85;4.50;;;5.90;99.90;;;;;;4916204;29;20203;-71
2022/03/05 16:35:38;;;;;;;5.65;4.95;;;5.90;99.90;;;;;;4910444;29;20297;-71
2022/03/05 16:38:07;;;;;;;7.00;4.55;;;5.80;99.90;;;;;;4917547;29;20211;-71
2022/03/05 16:40:38;;;;;;;5.22;4.93;;;5.80;99.90;;;;;;4913466;29;20218;-70
2022/03/05 16:43:10;;;;;;;6.13;5.53;;;5.80;99.90;;;;;;4913972;29;20219;-71
2022/03/05 16:45:52;;;;;;;6.80;5.20;;;5.80;99.90;;;;;;4906048;29;20229;-70
2022/03/05 16:48:30;;;;;;;5.72;4.88;;;5.70;99.90;;;;;;4911173;29;20226;-70
2022/03/05 16:51:03;;;;;;;5.03;4.63;;;5.70;99.90;;;;;;4907774;29;20234;-70
2022/03/05 16:53:35;;;;;;;7.20;6.13;;;5.60;99.90;;;;;;4912892;29;20210;-71
2022/03/05 16:56:12;;;;;;;7.07;6.38;;;5.60;99.90;;;;;;4911015;29;20206;-72
2022/03/05 16:58:57;;;;;;;11.82;7.85;;;5.60;99.90;;;;;;4909327;29;20589;-70
2022/03/05 17:01:24;;;;;;;6.95;5.90;;;5.60;99.90;;;;;;4913170;29;20258;-70
2022/03/05 17:04:02;;;;;;;7.28;6.60;;;5.60;99.90;;;;;;4919422;29;20612;-70
2022/03/05 17:06:30;;;;;;;7.13;6.32;;;5.50;99.90;;;;;;4912779;29;20225;-70
2022/03/05 17:08:59;;;;;;;8.57;6.53;;;5.50;99.90;;;;;;4913166;29;20211;-70
2022/03/05 17:11:28;;;;;;;9.20;8.30;;;5.50;99.90;;;;;;4910192;29;20227;-70
2022/03/05 17:13:57;;;;;;;7.38;6.57;;;5.50;99.90;;;;;;4911633;29;20584;-70
2022/03/05 17:16:31;;;;;;;6.95;6.25;;;5.40;99.90;;;;;;4911425;29;20270;-70
2022/03/05 17:19:02;;;;;;;7.05;6.38;;;5.40;99.90;;;;;;4911099;29;20373;-70
2022/03/05 17:21:52;;;;;;;9.00;6.75;;;5.40;99.90;;;;;;4927005;29;20234;-70
2022/03/05 17:24:19;;;;;;;9.13;8.20;;;5.30;99.90;;;;;;4911294;29;20234;-70
2022/03/05 17:26:49;;;;;;;9.07;7.80;;;5.40;99.90;;;;;;4912466;29;20321;-70
2022/03/05 17:29:16;;;;;;;10.93;7.13;;;5.30;99.90;;;;;;4912007;29;20569;-70
2022/03/05 17:31:43;;;;;;;8.20;7.30;;;5.30;99.90;;;;;;4909649;29;20309;-70
2022/03/05 17:34:13;;;;;;;10.40;7.72;;;5.30;99.90;;;;;;4911508;29;20585;-69
2022/03/05 17:36:42;;;;;;;9.10;8.20;;;5.30;99.90;;;;;;4911756;29;20326;-70
2022/03/05 17:39:10;;;;;;;9.60;7.20;;;5.30;99.90;;;;;;4912297;29;20297;-69
2022/03/05 17:41:40;;;;;;;9.65;7.50;;;5.20;99.90;;;;;;4912313;29;20234;-71
2022/03/05 17:44:09;;;;;;;13.07;8.02;;;5.20;99.90;;;;;;4915410;29;20227;-69
2022/03/05 17:46:43;;;;;;;12.63;8.48;;;5.20;99.90;;;;;;4916238;29;20293;-69
2022/03/05 17:49:16;;;;;;;8.45;7.70;;;5.20;99.90;;;;;;4917266;29;20211;-70
2022/03/05 17:51:48;;;;;;;8.18;7.45;;;5.20;99.90;;;;;;4915442;29;20238;-68
2022/03/05 17:54:20;;;;;;;8.38;7.55;;;5.10;99.90;;;;;;4930940;29;20289;-69
2022/03/05 17:56:55;;;;;;;7.03;6.32;;;5.10;99.90;;;;;;4917013;29;20203;-69
2022/03/05 17:59:33;;;;;;;8.40;7.60;;;5.10;99.90;;;;;;4915500;29;20265;-71
2022/03/05 18:02:02;;;;;;;8.77;7.97;;;5.10;99.90;;;;;;4915841;29;20234;-70
2022/03/05 18:04:41;;;;;;;8.77;7.93;;;5.10;99.90;;;;;;4914779;29;20238;-70
2022/03/05 18:07:12;;;;;;;8.52;7.78;;;5.10;99.90;;;;;;4914862;29;20217;-70
2022/03/05 18:09:40;;;;;;;11.40;8.35;;;5.00;99.90;;;;;;4915047;29;20598;-70
2022/03/05 18:12:11;;;;;;;9.48;8.55;;;5.00;99.90;;;;;;4915602;29;20230;-69
2022/03/05 18:14:39;;;;;;;10.07;8.98;;;5.00;99.90;;;;;;4915038;29;20211;-69